createdAt,value
2018-03-25T00:01:15.690Z,101254.45
2018-03-25T00:03:44.708Z,101259.35
2018-03-25T00:06:13.713Z,101260.42
2018-03-25T00:08:42.871Z,101264.50
2018-03-25T00:11:11.937Z,101266.77
2018-03-25T00:13:41.400Z,101252.77
2018-03-25T00:16:10.537Z,101251.73
2018-03-25T00:18:39.741Z,101257.13
2018-03-25T00:21:08.950Z,101253.66
2018-03-25T00:23:38.037Z,101252.06
2018-03-25T00:26:07.239Z,101247.87
2018-03-25T00:28:36.262Z,101250.46
2018-03-25T00:31:05.189Z,101241.61
2018-03-25T00:33:34.235Z,101244.02
2018-03-25T00:36:03.358Z,101238.14
2018-03-25T00:38:32.441Z,101237.92
2018-03-25T00:41:01.430Z,101237.80
2018-03-25T00:43:30.546Z,101240.12
2018-03-25T00:45:59.730Z,101231.28
2018-03-25T00:48:29.088Z,101237.69
2018-03-25T00:50:58.211Z,101236.50
2018-03-25T00:53:27.425Z,101243.66
2018-03-25T00:55:56.617Z,101239.78
2018-03-25T00:58:25.857Z,101240.20
2018-03-25T01:00:54.836Z,101245.73
2018-03-25T01:03:23.970Z,101251.20
2018-03-25T01:05:53.109Z,101252.06
2018-03-25T01:08:22.105Z,101251.16
2018-03-25T01:10:51.567Z,101256.51
2018-03-25T01:13:20.690Z,101253.49
2018-03-25T01:16:01.231Z,101259.96
2018-03-25T01:18:30.117Z,101265.85
2018-03-25T01:20:59.316Z,101268.73
2018-03-25T01:23:28.509Z,101268.53
2018-03-25T01:25:57.974Z,101265.36
2018-03-25T01:28:27.010Z,101259.27
2018-03-25T01:30:56.105Z,101269.48
2018-03-25T01:33:25.301Z,101273.09
2018-03-25T01:35:54.412Z,101269.11
2018-03-25T01:38:23.637Z,101275.20
2018-03-25T01:40:52.798Z,101272.07
2018-03-25T01:43:21.992Z,101282.61
2018-03-25T01:45:51.841Z,101278.91
2018-03-25T01:48:21.012Z,101271.45
2018-03-25T01:50:50.202Z,101270.67
2018-03-25T01:53:19.427Z,101277.96
2018-03-25T01:55:48.607Z,101283.31
2018-03-25T01:58:17.802Z,101282.91
2018-03-25T02:00:46.994Z,101283.27
2018-03-25T02:03:16.099Z,101278.73
2018-03-25T02:05:45.295Z,101282.53
2018-03-25T02:08:20.602Z,101281.05
2018-03-25T02:10:49.898Z,101286.39
2018-03-25T02:13:24.964Z,101287.09
2018-03-25T02:15:57.143Z,101290.18
2018-03-25T02:18:26.405Z,101291.41
2018-03-25T02:20:55.539Z,101280.19
2018-03-25T02:23:24.871Z,101283.09
2018-03-25T02:25:54.007Z,101288.61
2018-03-25T02:28:23.034Z,101287.45
2018-03-25T02:30:52.045Z,101287.66
2018-03-25T02:33:21.314Z,101281.15
2018-03-25T02:35:51.699Z,101290.45
2018-03-25T02:38:20.798Z,101295.88
2018-03-25T02:40:49.845Z,101296.81
2018-03-25T02:43:18.938Z,101300.10
2018-03-25T02:45:48.170Z,101298.16
2018-03-25T02:48:17.325Z,101290.94
2018-03-25T02:50:46.525Z,101296.61
2018-03-25T02:53:15.709Z,101296.28
2018-03-25T02:55:45.017Z,101295.20
2018-03-25T02:58:14.233Z,101301.50
2018-03-25T03:00:43.253Z,101302.69
2018-03-25T03:03:12.273Z,101307.26
2018-03-25T03:05:41.331Z,101311.22
2018-03-25T03:08:10.537Z,101314.34
2018-03-25T03:10:39.697Z,101312.58
2018-03-25T03:13:08.997Z,101320.91
2018-03-25T03:15:38.178Z,101320.78
2018-03-25T03:18:07.409Z,101317.98
2018-03-25T03:20:36.451Z,101324.74
2018-03-25T03:23:05.643Z,101319.99
2018-03-25T03:25:34.577Z,101314.87
2018-03-25T03:28:03.573Z,101313.38
2018-03-25T03:30:35.073Z,101313.66
2018-03-25T03:33:04.116Z,101319.55
2018-03-25T03:35:33.322Z,101325.41
2018-03-25T03:38:02.573Z,101329.92
2018-03-25T03:40:31.714Z,101329.91
2018-03-25T03:43:00.872Z,101329.83
2018-03-25T03:45:30.034Z,101332.97
2018-03-25T03:47:58.937Z,101337.58
2018-03-25T03:50:27.993Z,101333.16
2018-03-25T03:52:57.295Z,101340.33
2018-03-25T03:55:26.552Z,101346.19
2018-03-25T03:57:55.699Z,101344.32
2018-03-25T04:00:25.048Z,101344.50
2018-03-25T04:02:54.241Z,101349.03
2018-03-25T04:05:23.529Z,101353.20
2018-03-25T04:07:52.695Z,101353.64
2018-03-25T04:10:21.737Z,101352.03
2018-03-25T04:12:51.021Z,101350.89
2018-03-25T04:15:20.190Z,101354.38
2018-03-25T04:17:49.128Z,101359.69
2018-03-25T04:20:18.295Z,101361.46
2018-03-25T04:22:47.510Z,101367.27
2018-03-25T04:25:16.647Z,101364.46
2018-03-25T04:27:45.775Z,101364.33
2018-03-25T04:30:15.180Z,101373.77
2018-03-25T04:32:44.301Z,101372.36
2018-03-25T04:35:13.349Z,101374.23
2018-03-25T04:37:42.385Z,101380.16
2018-03-25T04:40:11.478Z,101379.00
2018-03-25T04:42:40.845Z,101383.25
2018-03-25T04:45:10.085Z,101379.85
2018-03-25T04:47:39.287Z,101378.09
2018-03-25T04:50:08.442Z,101370.25
2018-03-25T04:52:37.686Z,101368.63
2018-03-25T04:55:06.630Z,101371.70
2018-03-25T04:57:35.685Z,101376.98
2018-03-25T05:00:04.898Z,101378.55
2018-03-25T05:02:34.121Z,101386.94
2018-03-25T05:05:03.366Z,101390.39
2018-03-25T05:07:32.561Z,101387.93
2018-03-25T05:10:01.722Z,101393.45
2018-03-25T05:12:30.926Z,101392.16
2018-03-25T05:15:00.173Z,101399.53
2018-03-25T05:17:29.309Z,101400.81
2018-03-25T05:19:58.405Z,101393.85
2018-03-25T05:22:27.665Z,101390.19
2018-03-25T05:24:56.845Z,101378.23
2018-03-25T05:27:26.005Z,101391.11
2018-03-25T05:29:55.161Z,101397.23
2018-03-25T05:32:24.443Z,101401.13
2018-03-25T05:34:53.598Z,101416.00
2018-03-25T05:37:22.808Z,101416.98
2018-03-25T05:39:52.003Z,101419.20
2018-03-25T05:42:21.960Z,101420.05
2018-03-25T05:44:51.193Z,101426.51
2018-03-25T05:47:20.211Z,101423.50
2018-03-25T05:49:49.234Z,101419.61
2018-03-25T05:52:18.400Z,101424.08
2018-03-25T05:54:47.533Z,101423.50
2018-03-25T05:57:16.731Z,101424.82
2018-03-25T05:59:46.093Z,101434.78
2018-03-25T06:02:15.298Z,101440.27
2018-03-25T06:04:44.497Z,101441.11
2018-03-25T06:07:13.726Z,101444.30
2018-03-25T06:09:43.007Z,101447.23
2018-03-25T06:12:12.090Z,101444.74
2018-03-25T06:14:41.129Z,101436.12
2018-03-25T06:17:10.274Z,101434.73
2018-03-25T06:19:39.379Z,101447.05
2018-03-25T06:22:08.519Z,101436.30
2018-03-25T06:24:37.477Z,101449.61
2018-03-25T06:27:06.767Z,101446.11
2018-03-25T06:29:35.805Z,101449.05
2018-03-25T06:32:04.961Z,101457.86
2018-03-25T06:34:34.097Z,101456.33
2018-03-25T06:37:03.222Z,101465.67
2018-03-25T06:39:32.268Z,101478.00
2018-03-25T06:42:01.360Z,101476.31
2018-03-25T06:44:30.384Z,101472.34
2018-03-25T06:46:59.436Z,101479.17
2018-03-25T06:49:28.526Z,101480.56
2018-03-25T06:51:57.776Z,101484.59
2018-03-25T06:54:26.897Z,101482.46
2018-03-25T06:56:55.869Z,101484.27
2018-03-25T06:59:24.862Z,101481.73
2018-03-25T07:01:54.176Z,101490.19
2018-03-25T07:04:23.255Z,101483.70
2018-03-25T07:06:52.506Z,101498.00
2018-03-25T07:09:21.723Z,101499.13
2018-03-25T07:11:50.889Z,101499.66
2018-03-25T07:14:20.129Z,101497.23
2018-03-25T07:16:49.184Z,101507.87
2018-03-25T07:19:18.381Z,101504.37
2018-03-25T07:21:47.410Z,101507.01
2018-03-25T07:24:16.841Z,101506.44
2018-03-25T07:26:45.885Z,101500.94
2018-03-25T07:29:14.825Z,101502.86
2018-03-25T07:31:43.806Z,101511.04
2018-03-25T07:34:12.771Z,101515.19
2018-03-25T07:36:41.743Z,101512.02
2018-03-25T07:39:10.663Z,101515.69
2018-03-25T07:41:39.669Z,101522.80
2018-03-25T07:44:08.800Z,101524.10
2018-03-25T07:46:37.776Z,101526.88
2018-03-25T07:49:07.052Z,101532.04
2018-03-25T07:51:36.586Z,101532.40
2018-03-25T07:54:05.586Z,101537.69
2018-03-25T07:56:34.598Z,101532.77
2018-03-25T07:59:03.520Z,101542.84
2018-03-25T08:01:32.503Z,101543.16
2018-03-25T08:04:01.606Z,101544.48
2018-03-25T08:06:30.591Z,101547.54
2018-03-25T08:08:59.559Z,101546.86
2018-03-25T08:11:28.600Z,101543.25
2018-03-25T08:13:57.633Z,101540.18
2018-03-25T08:16:26.809Z,101546.75
2018-03-25T08:18:55.721Z,101547.28
2018-03-25T08:21:24.674Z,101547.88
2018-03-25T08:23:53.844Z,101552.29
2018-03-25T08:26:22.875Z,101552.89
2018-03-25T08:28:51.945Z,101554.06
2018-03-25T08:31:21.077Z,101553.27
2018-03-25T08:33:50.149Z,101551.56
2018-03-25T08:36:19.226Z,101549.55
2018-03-25T08:38:48.629Z,101549.72
2018-03-25T08:41:17.662Z,101544.31
2018-03-25T08:43:46.714Z,101543.50
2018-03-25T08:46:15.859Z,101539.70
2018-03-25T08:48:44.818Z,101544.61
2018-03-25T08:51:13.814Z,101544.59
2018-03-25T08:53:42.841Z,101547.68
2018-03-25T08:56:12.201Z,101556.45
2018-03-25T08:58:41.601Z,101546.35
2018-03-25T09:01:10.733Z,101545.58
2018-03-25T09:03:39.801Z,101549.95
2018-03-25T09:06:08.969Z,101559.43
2018-03-25T09:08:38.012Z,101561.93
2018-03-25T09:11:06.993Z,101570.75
2018-03-25T09:13:36.017Z,101557.92
2018-03-25T09:16:04.978Z,101560.16
2018-03-25T09:18:34.020Z,101573.36
2018-03-25T09:21:02.914Z,101566.05
2018-03-25T09:23:31.991Z,101561.30
2018-03-25T09:26:01.253Z,101568.95
2018-03-25T09:31:11.482Z,101564.28
2018-03-25T09:33:40.581Z,101574.64
2018-03-25T09:36:09.827Z,101580.72
2018-03-25T09:38:38.807Z,101577.62
2018-03-25T09:41:07.745Z,101580.80
2018-03-25T09:43:36.798Z,101588.14
2018-03-25T09:46:05.755Z,101591.53
2018-03-25T09:48:34.707Z,101585.04
2018-03-25T09:51:03.778Z,101585.53
2018-03-25T09:53:32.815Z,101579.42
2018-03-25T09:56:01.827Z,101598.54
2018-03-25T09:58:30.886Z,101598.68
2018-03-25T10:01:05.642Z,101597.54
2018-03-25T10:03:34.649Z,101597.33
2018-03-25T10:06:03.601Z,101597.30
2018-03-25T10:08:32.731Z,101602.63
2018-03-25T10:11:01.711Z,101599.86
2018-03-25T10:13:30.714Z,101604.48
2018-03-25T10:15:59.821Z,101603.66
2018-03-25T10:18:28.831Z,101600.52
2018-03-25T10:20:57.831Z,101599.47
2018-03-25T10:23:26.871Z,101599.41
2018-03-25T10:25:55.887Z,101607.57
2018-03-25T10:28:24.869Z,101603.43
2018-03-25T10:30:53.967Z,101600.13
2018-03-25T10:33:23.068Z,101598.39
2018-03-25T10:35:52.361Z,101594.66
2018-03-25T10:38:21.381Z,101595.81
2018-03-25T10:40:50.510Z,101589.94
2018-03-25T10:43:19.693Z,101595.89
2018-03-25T10:45:49.519Z,101592.11
2018-03-25T10:48:18.739Z,101590.54
2018-03-25T10:50:47.741Z,101589.61
2018-03-25T10:53:16.758Z,101583.26
2018-03-25T10:55:45.665Z,101585.84
2018-03-25T10:58:14.624Z,101581.03
2018-03-25T11:00:43.651Z,101569.11
2018-03-25T11:03:12.865Z,101569.34
2018-03-25T11:05:41.918Z,101552.55
2018-03-25T11:08:11.011Z,101542.80
2018-03-25T11:10:40.109Z,101562.19
2018-03-25T11:13:09.198Z,101559.86
2018-03-25T11:15:38.241Z,101563.78
2018-03-25T11:18:07.451Z,101570.55
2018-03-25T11:20:36.902Z,101575.19
2018-03-25T11:23:05.998Z,101560.76
2018-03-25T11:25:35.049Z,101560.86
2018-03-25T11:28:04.140Z,101559.98
2018-03-25T11:30:33.317Z,101552.92
2018-03-25T11:33:02.386Z,101547.50
2018-03-25T11:35:31.728Z,101540.91
2018-03-25T11:38:00.786Z,101563.88
2018-03-25T11:40:29.917Z,101556.20
2018-03-25T11:42:59.013Z,101576.08
2018-03-25T11:45:28.091Z,101538.80
2018-03-25T11:47:57.006Z,101571.83
2018-03-25T11:50:25.983Z,101563.80
2018-03-25T11:52:55.252Z,101565.86
2018-03-25T11:55:24.187Z,101563.45
2018-03-25T11:57:53.249Z,101564.23
2018-03-25T12:00:22.571Z,101564.48
2018-03-25T12:02:51.895Z,101570.50
2018-03-25T12:05:21.030Z,101551.63
2018-03-25T12:07:50.197Z,101542.00
2018-03-25T12:10:19.277Z,101540.84
2018-03-25T12:12:48.402Z,101542.02
2018-03-25T12:15:18.222Z,101535.09
2018-03-25T12:17:47.248Z,101536.01
2018-03-25T12:20:16.380Z,101541.55
2018-03-25T12:22:45.881Z,101528.05
2018-03-25T12:25:15.140Z,101546.30
2018-03-25T12:27:44.233Z,101551.68
2018-03-25T12:30:13.474Z,101545.45
2018-03-25T12:32:42.678Z,101549.85
2018-03-25T12:35:11.873Z,101526.36
2018-03-25T12:37:41.023Z,101536.69
2018-03-25T12:40:10.169Z,101536.24
2018-03-25T12:42:39.302Z,101538.50
2018-03-25T12:45:08.524Z,101549.23
2018-03-25T12:47:37.658Z,101548.22
2018-03-25T12:50:06.861Z,101538.70
2018-03-25T12:52:36.119Z,101545.98
2018-03-25T12:55:05.314Z,101556.08
2018-03-25T12:57:34.702Z,101554.22
2018-03-25T13:00:03.805Z,101562.26
2018-03-25T13:02:32.963Z,101555.84
2018-03-25T13:05:02.247Z,101566.63
2018-03-25T13:07:31.319Z,101567.02
2018-03-25T13:10:00.505Z,101576.22
2018-03-25T13:12:29.686Z,101572.53
2018-03-25T13:14:58.692Z,101574.78
2018-03-25T13:17:27.937Z,101571.22
2018-03-25T13:19:57.077Z,101571.22
2018-03-25T13:22:26.124Z,101568.98
2018-03-25T13:24:55.171Z,101567.07
2018-03-25T13:27:24.299Z,101566.45
2018-03-25T13:29:53.375Z,101561.83
2018-03-25T13:32:22.652Z,101561.75
2018-03-25T13:34:51.859Z,101569.69
2018-03-25T13:37:21.014Z,101567.07
2018-03-25T13:39:50.034Z,101571.03
2018-03-25T13:42:19.109Z,101568.52
2018-03-25T13:44:48.291Z,101563.33
2018-03-25T13:47:17.631Z,101569.41
2018-03-25T13:49:46.760Z,101568.25
2018-03-25T13:52:15.865Z,101577.30
2018-03-25T13:54:44.935Z,101575.94
2018-03-25T13:57:13.953Z,101577.45
2018-03-25T13:59:43.038Z,101567.36
2018-03-25T14:02:12.055Z,101566.28
2018-03-25T14:04:41.209Z,101573.52
2018-03-25T14:07:10.327Z,101577.07
2018-03-25T14:09:39.327Z,101569.52
2018-03-25T14:12:08.410Z,101574.81
2018-03-25T14:14:37.442Z,101582.12
2018-03-25T14:17:06.622Z,101585.94
2018-03-25T14:19:36.445Z,101585.08
2018-03-25T14:22:05.542Z,101587.34
2018-03-25T14:24:34.646Z,101587.64
2018-03-25T14:27:03.669Z,101588.77
2018-03-25T14:29:32.803Z,101584.80
2018-03-25T14:32:02.129Z,101586.89
2018-03-25T14:34:31.119Z,101581.11
2018-03-25T14:37:00.086Z,101569.53
2018-03-25T14:39:29.190Z,101566.13
2018-03-25T14:41:58.283Z,101573.39
2018-03-25T14:44:27.291Z,101573.26
2018-03-25T14:46:56.205Z,101580.32
2018-03-25T14:49:25.306Z,101577.92
2018-03-25T14:51:54.276Z,101578.94
2018-03-25T14:54:23.274Z,101588.88
2018-03-25T14:56:52.418Z,101576.52
2018-03-25T14:59:21.481Z,101588.66
2018-03-25T15:01:50.521Z,101591.53
2018-03-25T15:04:19.480Z,101592.69
2018-03-25T15:06:48.485Z,101590.66
2018-03-25T15:09:17.765Z,101589.11
2018-03-25T15:11:46.921Z,101586.30
2018-03-25T15:14:16.012Z,101586.14
2018-03-25T15:16:45.226Z,101585.20
2018-03-25T15:19:14.179Z,101589.67
2018-03-25T15:21:43.146Z,101589.63
2018-03-25T15:24:12.349Z,101582.86
2018-03-25T15:26:41.457Z,101579.07
2018-03-25T15:29:10.516Z,101584.45
2018-03-25T15:31:39.489Z,101580.66
2018-03-25T15:34:08.518Z,101585.91
2018-03-25T15:36:37.571Z,101585.82
2018-03-25T15:39:06.589Z,101590.33
2018-03-25T15:41:35.537Z,101594.20
2018-03-25T15:44:04.541Z,101588.29
2018-03-25T15:46:33.526Z,101597.55
2018-03-25T15:49:02.635Z,101599.85
2018-03-25T15:51:31.813Z,101604.48
2018-03-25T15:54:00.826Z,101602.76
2018-03-25T15:56:29.773Z,101605.75
2018-03-25T15:58:58.918Z,101591.05
2018-03-25T16:01:27.910Z,101589.05
2018-03-25T16:03:56.981Z,101598.56
2018-03-25T16:06:25.939Z,101599.92
2018-03-25T16:08:55.094Z,101600.28
2018-03-25T16:11:24.063Z,101589.73
2018-03-25T16:13:53.343Z,101591.38
2018-03-25T16:16:22.487Z,101593.36
2018-03-25T16:18:51.447Z,101592.34
2018-03-25T16:21:20.977Z,101590.17
2018-03-25T16:23:50.311Z,101590.23
2018-03-25T16:26:19.429Z,101591.00
2018-03-25T16:28:48.539Z,101598.69
2018-03-25T16:31:17.883Z,101593.86
2018-03-25T16:33:46.982Z,101580.83
2018-03-25T16:36:15.983Z,101592.17
2018-03-25T16:38:44.856Z,101600.69
2018-03-25T16:41:13.935Z,101600.67
2018-03-25T16:43:42.843Z,101596.30
2018-03-25T16:46:11.807Z,101593.28
2018-03-25T16:48:40.886Z,101585.08
2018-03-25T16:51:10.019Z,101585.87
2018-03-25T16:53:39.055Z,101589.95
2018-03-25T16:56:08.162Z,101590.05
2018-03-25T16:58:37.316Z,101592.65
2018-03-25T17:01:06.511Z,101595.45
2018-03-25T17:03:35.468Z,101590.09
2018-03-25T17:06:04.420Z,101601.77
2018-03-25T17:08:33.609Z,101603.33
2018-03-25T17:11:02.636Z,101601.16
2018-03-25T17:13:31.657Z,101606.39
2018-03-25T17:16:00.666Z,101603.03
2018-03-25T17:18:29.585Z,101605.59
2018-03-25T17:20:58.670Z,101595.39
2018-03-25T17:23:27.757Z,101608.16
2018-03-25T17:25:56.753Z,101609.25
2018-03-25T17:28:25.742Z,101613.94
2018-03-25T17:30:55.107Z,101618.44
2018-03-25T17:33:24.261Z,101614.98
2018-03-25T17:35:53.379Z,101618.19
2018-03-25T17:38:22.394Z,101625.55
2018-03-25T17:40:51.369Z,101624.75
2018-03-25T17:43:20.322Z,101623.28
2018-03-25T17:45:49.294Z,101623.42
2018-03-25T17:48:18.213Z,101617.59
2018-03-25T17:50:47.306Z,101619.89
2018-03-25T17:53:16.331Z,101620.20
2018-03-25T17:55:45.424Z,101620.11
2018-03-25T17:58:14.442Z,101622.86
2018-03-25T18:00:43.551Z,101622.95
2018-03-25T18:03:12.692Z,101633.02
2018-03-25T18:05:43.227Z,101639.77
2018-03-25T18:08:12.253Z,101637.54
2018-03-25T18:10:41.308Z,101639.92
2018-03-25T18:13:10.426Z,101636.63
2018-03-25T18:15:39.462Z,101637.72
2018-03-25T18:18:08.447Z,101640.39
2018-03-25T18:20:37.413Z,101640.77
2018-03-25T18:23:06.398Z,101645.36
2018-03-25T18:25:35.327Z,101652.20
2018-03-25T18:28:04.439Z,101654.30
2018-03-25T18:30:33.493Z,101652.14
2018-03-25T18:33:02.494Z,101651.41
2018-03-25T18:35:31.505Z,101650.09
2018-03-25T18:38:00.555Z,101651.69
2018-03-25T18:40:29.669Z,101652.62
2018-03-25T18:42:58.825Z,101648.02
2018-03-25T18:45:28.000Z,101646.38
2018-03-25T18:47:57.088Z,101644.06
2018-03-25T18:50:26.153Z,101631.45
2018-03-25T18:52:55.148Z,101633.95
2018-03-25T18:55:24.280Z,101645.95
2018-03-25T18:57:53.259Z,101646.33
2018-03-25T19:00:22.249Z,101642.03
2018-03-25T19:02:51.245Z,101639.07
2018-03-25T19:05:20.299Z,101636.53
2018-03-25T19:07:49.432Z,101630.61
2018-03-25T19:10:18.466Z,101632.65
2018-03-25T19:12:47.542Z,101639.69
2018-03-25T19:15:16.617Z,101636.42
2018-03-25T19:17:45.617Z,101626.86
2018-03-25T19:20:14.834Z,101627.09
2018-03-25T19:22:43.997Z,101618.44
2018-03-25T19:25:13.045Z,101615.75
2018-03-25T19:27:42.854Z,101599.49
2018-03-25T19:30:11.913Z,101606.77
2018-03-25T19:32:40.968Z,101603.63
2018-03-25T19:35:09.938Z,101594.62
2018-03-25T19:37:38.980Z,101598.21
2018-03-25T19:40:08.027Z,101596.21
2018-03-25T19:42:37.055Z,101595.91
2018-03-25T19:45:06.136Z,101595.20
2018-03-25T19:47:35.277Z,101602.47
2018-03-25T19:50:04.378Z,101602.25
2018-03-25T19:52:33.673Z,101607.42
2018-03-25T19:55:02.834Z,101612.55
2018-03-25T19:57:31.819Z,101615.36
2018-03-25T20:00:00.822Z,101619.63
2018-03-25T20:02:29.787Z,101612.70
2018-03-25T20:04:58.741Z,101617.96
2018-03-25T20:07:27.955Z,101618.86
2018-03-25T20:09:56.983Z,101617.86
2018-03-25T20:12:25.959Z,101615.38
2018-03-25T20:14:54.938Z,101613.48
2018-03-25T20:17:23.975Z,101621.08
2018-03-25T20:19:53.949Z,101611.73
2018-03-25T20:22:22.985Z,101614.31
2018-03-25T20:24:52.042Z,101611.91
2018-03-25T20:27:21.013Z,101613.34
2018-03-25T20:29:49.965Z,101616.30
2018-03-25T20:32:18.921Z,101623.40
2018-03-25T20:34:47.954Z,101622.73
2018-03-25T20:37:17.018Z,101627.62
2018-03-25T20:39:46.038Z,101619.26
2018-03-25T20:42:15.038Z,101620.66
2018-03-25T20:44:44.161Z,101611.59
2018-03-25T20:47:13.275Z,101606.16
2018-03-25T20:49:42.205Z,101598.50
2018-03-25T20:52:11.155Z,101579.71
2018-03-25T20:54:40.154Z,101587.62
2018-03-25T20:57:09.082Z,101588.51
2018-03-25T20:59:38.174Z,101588.41
2018-03-25T21:02:07.149Z,101586.16
2018-03-25T21:04:36.157Z,101585.66
2018-03-25T21:07:05.279Z,101581.77
2018-03-25T21:09:34.301Z,101573.59
2018-03-25T21:12:03.331Z,101570.05
2018-03-25T21:14:32.407Z,101575.45
2018-03-25T21:17:01.451Z,101573.75
2018-03-25T21:19:30.656Z,101566.43
2018-03-25T21:21:59.645Z,101558.96
2018-03-25T21:24:28.687Z,101562.22
2018-03-25T21:26:57.738Z,101562.86
2018-03-25T21:29:26.718Z,101562.75
2018-03-25T21:31:55.929Z,101567.90
2018-03-25T21:34:24.965Z,101549.88
2018-03-25T21:36:53.986Z,101560.44
2018-03-25T21:39:22.912Z,101557.52
2018-03-25T21:41:52.045Z,101555.07
2018-03-25T21:44:21.253Z,101552.27
2018-03-25T21:46:50.355Z,101555.52
2018-03-25T21:49:19.374Z,101551.42
2018-03-25T21:51:48.461Z,101554.39
2018-03-25T21:54:17.529Z,101551.95
2018-03-25T21:56:46.565Z,101542.16
2018-03-25T21:59:15.839Z,101528.69
2018-03-25T22:01:45.082Z,101528.20
2018-03-25T22:04:14.117Z,101529.30
2018-03-25T22:06:43.318Z,101521.84
2018-03-25T22:09:12.369Z,101525.83
2018-03-25T22:11:41.341Z,101525.40
2018-03-25T22:14:10.498Z,101520.52
2018-03-25T22:16:40.314Z,101514.97
2018-03-25T22:19:09.470Z,101532.22
2018-03-25T22:21:38.749Z,101517.11
2018-03-25T22:24:08.529Z,101516.57
2018-03-25T22:26:37.577Z,101519.48
2018-03-25T22:29:06.617Z,101506.98
2018-03-25T22:31:35.625Z,101500.02
2018-03-25T22:34:04.860Z,101489.69
2018-03-25T22:36:34.027Z,101485.86
2018-03-25T22:39:03.238Z,101485.98
2018-03-25T22:41:32.274Z,101489.83
2018-03-25T22:44:01.349Z,101489.84
2018-03-25T22:46:30.447Z,101489.41
2018-03-25T22:48:59.595Z,101478.77
2018-03-25T22:51:28.562Z,101482.69
2018-03-25T22:53:57.546Z,101469.39
2018-03-25T22:56:26.780Z,101456.17
2018-03-25T22:58:55.773Z,101430.75
2018-03-25T23:01:24.898Z,101421.56
2018-03-25T23:03:53.971Z,101414.49
2018-03-25T23:06:23.085Z,101394.39
2018-03-25T23:11:32.354Z,101426.13
2018-03-25T23:14:01.645Z,101436.80
2018-03-25T23:16:30.809Z,101443.81
2018-03-25T23:18:59.802Z,101443.66
2018-03-25T23:21:28.742Z,101441.72
2018-03-25T23:23:57.925Z,101435.52
2018-03-25T23:26:26.985Z,101432.23
2018-03-25T23:28:56.069Z,101417.52
2018-03-25T23:31:25.224Z,101417.73
2018-03-25T23:33:54.337Z,101413.65
2018-03-25T23:36:23.365Z,101418.26
2018-03-25T23:38:52.421Z,101423.18
2018-03-25T23:41:21.507Z,101407.95
2018-03-25T23:43:50.797Z,101416.60
2018-03-25T23:46:20.214Z,101417.48
2018-03-25T23:48:49.259Z,101403.11
2018-03-25T23:51:18.389Z,101395.63
2018-03-25T23:53:47.590Z,101378.89
2018-03-25T23:56:16.755Z,101378.27
2018-03-25T23:58:45.772Z,101379.00
